Time;durP1;ratioP1;P1;durP2;ratioP2;P2;SDS_P1;SDS_P2;PMS_P1;PMS_P2;Temp;Humidity;BMP_temperature;BMP_pressure;BME280_temperature;BME280_humidity;BME280_pressure;Samples;Min_cycle;Max_cycle;Signal;HPM_P1;HPM_P2
2023/05/17 00:01:20;;;;;;;6.90;2.50;;;;;;;8.00;86.42;101346.05;106561;1261;74848;-68
2023/05/17 00:03:47;;;;;;;7.80;2.70;;;;;;;7.98;86.31;101345.00;106905;1257;69964;-71
2023/05/17 00:06:13;;;;;;;6.80;2.80;;;;;;;7.94;86.62;101344.75;106396;1257;61881;-69
2023/05/17 00:08:40;;;;;;;6.40;2.50;;;;;;;7.94;86.66;101342.89;106670;1257;61158;-69
2023/05/17 00:11:06;;;;;;;7.10;2.70;;;;;;;7.90;87.47;101338.79;106151;1257;63537;-68
2023/05/17 00:13:33;;;;;;;8.40;3.00;;;;;;;7.90;86.94;101336.48;106118;1257;74654;-71
2023/05/17 00:16:00;;;;;;;6.10;3.10;;;;;;;7.89;87.00;101337.84;106068;1260;71540;-67
2023/05/17 00:18:26;;;;;;;8.20;2.90;;;;;;;7.90;86.81;101336.54;106462;1257;61248;-68
2023/05/17 00:20:53;;;;;;;5.60;2.40;;;;;;;7.91;87.39;101334.83;106726;1257;61123;-68
2023/05/17 00:23:19;;;;;;;5.50;2.40;;;;;;;7.94;87.21;101334.94;106709;1260;60063;-69
2023/05/17 00:25:46;;;;;;;7.80;2.70;;;;;;;7.97;87.50;101337.66;106340;1258;62472;-69
2023/05/17 00:28:12;;;;;;;6.60;2.70;;;;;;;8.00;87.55;101331.06;106242;1260;70126;-67
2023/05/17 00:30:39;;;;;;;10.20;2.70;;;;;;;8.02;87.60;101333.64;106251;1257;61362;-69
2023/05/17 00:33:06;;;;;;;7.20;2.60;;;;;;;8.05;87.85;101336.58;106071;1258;61254;-70
2023/05/17 00:35:32;;;;;;;9.40;2.80;;;;;;;8.05;88.02;101341.15;106447;1257;61364;-68
2023/05/17 00:37:59;;;;;;;7.60;2.90;;;;;;;8.05;88.06;101342.70;106343;1257;61695;-69
2023/05/17 00:40:25;;;;;;;7.30;2.80;;;;;;;8.06;87.77;101341.73;106501;1257;71267;-69
2023/05/17 00:42:52;;;;;;;8.20;2.90;;;;;;;8.06;88.15;101348.27;107117;1257;61364;-67
2023/05/17 00:45:18;;;;;;;7.10;2.50;;;;;;;8.06;88.31;101349.32;106483;1257;61193;-68
2023/05/17 00:47:45;;;;;;;8.40;3.40;;;;;;;8.07;88.21;101348.54;106219;1256;61192;-71
2023/05/17 00:50:12;;;;;;;9.10;2.80;;;;;;;8.06;88.48;101354.60;106142;1258;74371;-67
2023/05/17 00:52:39;;;;;;;8.20;3.00;;;;;;;8.05;88.86;101352.98;106425;1258;69955;-68
2023/05/17 00:55:06;;;;;;;8.70;2.70;;;;;;;8.03;88.78;101354.55;106331;1256;71623;-69
2023/05/17 00:57:33;;;;;;;8.80;2.80;;;;;;;8.02;88.44;101351.70;106337;1260;61142;-67
2023/05/17 01:00:00;;;;;;;10.40;3.20;;;;;;;7.98;88.75;101352.14;106320;1257;61616;-70
2023/05/17 01:02:27;;;;;;;9.10;3.00;;;;;;;7.94;88.82;101350.98;106395;1256;74926;-67
2023/05/17 01:04:54;;;;;;;6.90;3.00;;;;;;;7.89;89.42;101357.79;106313;1257;71222;-68
2023/05/17 01:07:21;;;;;;;10.50;3.50;;;;;;;7.83;89.68;101353.91;106156;1257;72716;-70
2023/05/17 01:09:48;;;;;;;5.30;2.50;;;;;;;7.78;89.95;101358.76;106032;1257;62313;-70
2023/05/17 01:12:35;;;;;;;5.40;2.60;;;;;;;7.72;90.50;101361.39;106289;1256;61731;-68
2023/05/17 01:15:14;;;;;;;8.30;3.10;;;;;;;7.65;90.79;101362.21;106991;1257;74726;-69
2023/05/17 01:18:17;;;;;;;7.20;3.00;;;;;;;7.62;91.05;101358.98;108918;1256;70029;-69
2023/05/17 01:20:45;;;;;;;8.70;2.50;;;;;;;7.59;90.79;101361.97;107335;1261;70823;-68
2023/05/17 01:23:41;;;;;;;8.50;3.10;;;;;;;7.55;91.11;101362.30;107998;1256;61169;-67
2023/05/17 01:26:18;;;;;;;8.40;3.40;;;;;;;7.50;91.65;101359.93;107323;1257;59450;-68
2023/05/17 01:28:48;;;;;;;7.00;2.80;;;;;;;7.46;91.59;101360.23;106300;1260;74795;-69
2023/05/17 01:31:16;;;;;;;10.00;3.20;;;;;;;7.42;92.01;101361.35;106317;1259;70350;-69
2023/05/17 01:33:42;;;;;;;8.50;2.70;;;;;;;7.38;92.49;101357.15;106016;1256;70531;-71
2023/05/17 01:36:09;;;;;;;10.70;3.50;;;;;;;7.34;92.45;101358.51;106888;1256;61378;-68
2023/05/17 01:38:36;;;;;;;20.60;3.60;;;;;;;7.29;92.46;101358.38;106527;1257;61417;-70
2023/05/17 01:41:27;;;;;;;8.70;2.90;;;;;;;7.26;92.24;101358.66;106351;1256;74615;-68
2023/05/17 01:44:15;;;;;;;8.80;3.00;;;;;;;7.19;93.34;101354.42;106262;1257;71704;-69
2023/05/17 01:46:42;;;;;;;9.60;3.10;;;;;;;7.14;93.52;101354.17;108066;1256;71465;-68
2023/05/17 01:49:28;;;;;;;8.50;3.00;;;;;;;7.09;93.79;101359.66;106048;1259;61308;-69
2023/05/17 01:52:26;;;;;;;10.90;3.60;;;;;;;7.06;94.13;101366.27;106156;1257;61484;-70
2023/05/17 01:55:03;;;;;;;9.90;3.30;;;;;;;7.02;94.69;101365.95;106363;1257;73545;-68
2023/05/17 01:57:34;;;;;;;9.90;3.40;;;;;;;7.01;95.12;101370.81;106697;1258;71430;-69
2023/05/17 02:00:05;;;;;;;11.70;3.70;;;;;;;7.00;94.71;101372.31;105988;1256;73239;-67
2023/05/17 02:02:32;;;;;;;9.80;3.50;;;;;;;6.99;95.38;101370.80;106334;1256;62151;-67
2023/05/17 02:04:58;;;;;;;8.00;3.50;;;;;;;7.00;95.47;101374.61;106321;1257;61142;-67
2023/05/17 02:07:25;;;;;;;8.40;3.50;;;;;;;6.99;95.85;101374.66;106317;1257;74659;-68
2023/05/17 02:09:52;;;;;;;10.90;3.20;;;;;;;6.99;95.78;101378.15;106262;1257;71831;-69
2023/05/17 02:12:18;;;;;;;9.00;3.70;;;;;;;6.98;96.48;101375.77;106782;1256;70565;-67
2023/05/17 02:14:45;;;;;;;9.90;3.60;;;;;;;7.00;96.45;101380.16;107045;1260;62656;-69
2023/05/17 02:17:12;;;;;;;12.30;3.70;;;;;;;7.02;96.30;101378.74;106493;1256;61839;-69
2023/05/17 02:19:38;;;;;;;10.10;3.20;;;;;;;7.04;96.32;101380.73;106429;1256;74732;-69
2023/05/17 02:22:05;;;;;;;10.50;3.70;;;;;;;7.06;96.27;101375.98;106031;1257;71148;-71
2023/05/17 02:24:31;;;;;;;10.60;4.20;;;;;;;7.08;96.47;101383.65;106069;1257;61746;-66
2023/05/17 02:26:58;;;;;;;9.00;3.70;;;;;;;7.11;96.58;101376.24;105970;1257;62383;-72
2023/05/17 02:29:25;;;;;;;11.70;3.90;;;;;;;7.13;96.58;101383.77;106160;1257;61353;-69
2023/05/17 02:31:51;;;;;;;12.00;3.70;;;;;;;7.14;97.09;101381.87;106305;1257;61264;-71
2023/05/17 02:34:18;;;;;;;12.70;3.90;;;;;;;7.18;97.39;101383.70;106654;1257;71176;-72
2023/05/17 02:36:44;;;;;;;8.50;3.20;;;;;;;7.23;97.36;101384.65;106495;1256;72770;-67
2023/05/17 02:39:11;;;;;;;10.00;3.70;;;;;;;7.27;97.95;101385.19;106254;1256;61317;-68
2023/05/17 02:41:38;;;;;;;14.10;3.50;;;;;;;7.35;97.67;101386.09;106572;1258;61237;-68
2023/05/17 02:44:04;;;;;;;8.70;3.70;;;;;;;7.40;97.69;101387.18;106355;1256;74737;-67
2023/05/17 02:46:31;;;;;;;13.60;3.80;;;;;;;7.46;97.99;101389.30;106333;1256;69987;-68
2023/05/17 02:48:57;;;;;;;10.70;4.30;;;;;;;7.55;97.73;101394.31;106278;1257;71516;-69
2023/05/17 02:51:24;;;;;;;11.40;3.90;;;;;;;7.61;97.52;101399.91;106633;1256;61385;-68
2023/05/17 02:53:51;;;;;;;10.40;4.00;;;;;;;7.65;97.68;101400.40;106510;1260;61256;-69
2023/05/17 02:56:17;;;;;;;12.10;3.70;;;;;;;7.69;97.51;101404.48;106065;1257;74685;-68
2023/05/17 02:58:44;;;;;;;13.10;4.30;;;;;;;7.72;96.91;101403.56;106440;1257;70242;-68
2023/05/17 03:01:10;;;;;;;14.90;4.10;;;;;;;7.73;96.95;101408.13;106181;1262;72440;-67
2023/05/17 03:03:37;;;;;;;10.80;4.10;;;;;;;7.75;96.73;101408.29;106295;1257;61200;-69
2023/05/17 03:06:04;;;;;;;11.50;4.00;;;;;;;7.77;96.67;101413.74;106024;1257;61768;-72
2023/05/17 03:08:31;;;;;;;12.10;4.70;;;;;;;7.79;96.12;101412.45;106587;1260;74645;-69
2023/05/17 03:10:57;;;;;;;13.20;4.30;;;;;;;7.78;95.79;101417.03;106563;1256;70493;-68
2023/05/17 03:13:24;;;;;;;11.60;3.80;;;;;;;7.78;96.12;101416.89;106076;1256;61321;-69
2023/05/17 03:15:51;;;;;;;14.90;4.50;;;;;;;7.77;95.83;101422.43;106314;1256;61344;-69
2023/05/17 03:18:18;;;;;;;12.90;4.10;;;;;;;7.77;95.58;101422.07;106179;1256;61252;-69
2023/05/17 03:20:44;;;;;;;14.20;4.90;;;;;;;7.79;95.27;101420.88;106175;1258;73407;-68
2023/05/17 03:23:11;;;;;;;10.90;4.00;;;;;;;7.79;95.31;101420.54;106352;1257;61196;-72
2023/05/17 03:25:37;;;;;;;10.00;4.30;;;;;;;7.78;95.51;101425.35;106226;1256;71180;-69
2023/05/17 03:28:04;;;;;;;11.70;4.20;;;;;;;7.77;95.05;101429.09;106879;1256;61279;-68
2023/05/17 03:30:31;;;;;;;10.10;4.00;;;;;;;7.75;95.34;101429.77;106479;1260;61145;-70
2023/05/17 03:32:57;;;;;;;13.40;4.50;;;;;;;7.73;95.11;101431.18;106331;1256;73456;-67
2023/05/17 03:35:24;;;;;;;14.10;4.20;;;;;;;7.72;94.37;101436.98;106188;1256;70551;-72
2023/05/17 03:37:51;;;;;;;17.40;4.50;;;;;;;7.69;94.65;101440.45;106060;1257;73339;-69
2023/05/17 03:40:17;;;;;;;12.70;4.40;;;;;;;7.65;94.75;101443.71;106180;1256;61369;-68
2023/05/17 03:42:44;;;;;;;15.20;4.60;;;;;;;7.62;94.90;101447.38;106221;1256;61275;-68
2023/05/17 03:45:11;;;;;;;13.30;4.10;;;;;;;7.59;95.06;101452.60;106943;1257;73544;-67
2023/05/17 03:47:38;;;;;;;16.30;5.00;;;;;;;7.54;95.40;101451.39;106944;1256;69660;-68
2023/05/17 03:50:05;;;;;;;13.20;4.10;;;;;;;7.51;95.57;101454.84;106199;1259;72669;-72
2023/05/17 03:52:32;;;;;;;14.60;4.50;;;;;;;7.48;95.83;101458.61;106277;1256;61292;-69
2023/05/17 03:54:59;;;;;;;12.20;4.60;;;;;;;7.46;95.84;101458.27;106276;1261;61244;-68
2023/05/17 03:57:25;;;;;;;14.40;4.40;;;;;;;7.44;95.57;101464.23;106186;1257;74480;-69
2023/05/17 03:59:52;;;;;;;19.20;4.60;;;;;;;7.43;96.03;101464.23;106274;1256;71290;-67
2023/05/17 04:02:19;;;;;;;18.50;5.40;;;;;;;7.42;96.00;101469.56;106106;1256;71507;-68
2023/05/17 04:04:49;;;;;;;19.20;5.10;;;;;;;7.42;95.77;101470.30;106211;1257;61175;-68
2023/05/17 04:07:16;;;;;;;19.30;4.80;;;;;;;7.43;95.42;101475.40;106856;1256;59243;-68
2023/05/17 04:09:43;;;;;;;16.90;4.80;;;;;;;7.44;95.49;101478.68;106117;1257;73545;-67
2023/05/17 04:12:10;;;;;;;21.50;5.10;;;;;;;7.45;95.20;101484.94;106350;1257;72172;-67
2023/05/17 04:14:37;;;;;;;20.40;4.90;;;;;;;7.48;94.64;101489.09;106459;1256;71158;-65
2023/05/17 04:17:04;;;;;;;21.20;5.10;;;;;;;7.53;94.12;101492.66;106634;1256;61263;-67
2023/05/17 04:19:30;;;;;;;18.40;4.40;;;;;;;7.57;93.50;101493.55;106422;1257;61304;-69
2023/05/17 04:21:58;;;;;;;17.50;4.50;;;;;;;7.59;93.33;101488.81;106738;1257;73830;-67
2023/05/17 04:24:24;;;;;;;19.50;4.60;;;;;;;7.62;93.05;101495.09;106458;1257;71229;-69
2023/05/17 04:26:51;;;;;;;22.60;4.80;;;;;;;7.64;92.38;101500.75;106474;1256;72837;-67
2023/05/17 04:29:18;;;;;;;28.40;5.40;;;;;;;7.65;92.37;101504.16;106409;1256;61356;-68
2023/05/17 04:31:47;;;;;;;27.90;5.70;;;;;;;7.66;92.23;101507.06;106455;1259;61138;-67
2023/05/17 04:34:16;;;;;;;29.20;5.70;;;;;;;7.65;92.08;101508.31;106461;1256;74105;-68
2023/05/17 04:36:43;;;;;;;30.90;6.00;;;;;;;7.68;91.33;101512.33;106463;1257;69944;-70
2023/05/17 04:39:10;;;;;;;36.00;7.40;;;;;;;7.72;91.35;101513.65;106482;1257;71529;-70
2023/05/17 04:41:36;;;;;;;27.00;5.80;;;;;;;7.75;90.99;101522.75;107122;1256;61653;-69
2023/05/17 04:44:06;;;;;;;27.40;6.10;;;;;;;7.76;90.33;101526.41;107051;1256;61174;-70
2023/05/17 04:46:32;;;;;;;32.50;5.90;;;;;;;7.77;90.14;101528.42;106467;1257;73283;-69
2023/05/17 04:48:59;;;;;;;28.70;6.80;;;;;;;7.79;90.27;101532.19;106771;1257;71344;-69
2023/05/17 04:51:26;;;;;;;32.80;7.00;;;;;;;7.82;89.96;101536.45;106688;1258;71583;-71
2023/05/17 04:53:53;;;;;;;28.50;6.10;;;;;;;7.86;89.97;101541.23;107051;1256;61173;-70
2023/05/17 04:56:20;;;;;;;34.20;7.70;;;;;;;7.86;89.39;101542.66;107592;1257;61282;-71
2023/05/17 04:58:47;;;;;;;25.00;5.30;;;;;;;7.89;89.24;101546.89;107383;1257;73586;-70
2023/05/17 05:01:16;;;;;;;27.00;5.50;;;;;;;7.95;89.05;101549.73;106820;1256;71169;-71
2023/05/17 05:03:43;;;;;;;18.70;4.40;;;;;;;8.00;88.35;101556.70;106534;1257;71812;-67
2023/05/17 05:06:10;;;;;;;28.50;5.40;;;;;;;8.08;88.16;101552.33;106478;1256;62987;-70
2023/05/17 05:08:37;;;;;;;14.50;3.30;;;;;;;8.13;87.53;101559.00;106610;1256;61251;-70
2023/05/17 05:11:04;;;;;;;15.00;4.00;;;;;;;8.18;86.62;101564.95;106636;1260;75984;-71
2023/05/17 05:13:30;;;;;;;21.60;4.50;;;;;;;8.24;86.56;101562.95;106215;1257;68922;-70
2023/05/17 05:15:57;;;;;;;19.50;4.40;;;;;;;8.30;85.97;101565.46;106819;1256;72695;-70
2023/05/17 05:18:24;;;;;;;16.10;3.40;;;;;;;8.39;86.26;101566.20;106798;1256;61240;-73
2023/05/17 05:20:51;;;;;;;18.70;3.50;;;;;;;8.48;86.00;101569.09;106350;1257;61279;-71
2023/05/17 05:23:18;;;;;;;12.40;3.40;;;;;;;8.60;85.59;101570.91;106505;1256;73952;-70
2023/05/17 05:25:47;;;;;;;18.50;4.30;;;;;;;8.66;84.54;101574.16;106334;1256;71302;-73
2023/05/17 05:28:14;;;;;;;14.00;3.30;;;;;;;8.70;83.74;101583.19;106414;1257;71494;-70
2023/05/17 05:30:41;;;;;;;11.40;2.90;;;;;;;8.72;83.36;101590.54;106235;1257;61162;-71
2023/05/17 05:33:08;;;;;;;16.20;3.30;;;;;;;8.76;82.65;101590.04;106632;1257;61289;-70
2023/05/17 05:35:34;;;;;;;13.00;3.00;;;;;;;8.81;82.36;101593.15;107087;1256;74567;-71
2023/05/17 05:38:02;;;;;;;14.20;3.20;;;;;;;8.83;82.20;101599.98;106470;1257;71295;-69
2023/05/17 05:40:29;;;;;;;14.30;3.20;;;;;;;8.86;81.78;101604.29;106455;1257;71446;-71
2023/05/17 05:42:56;;;;;;;13.70;3.40;;;;;;;8.94;82.04;101602.17;106395;1257;61667;-69
2023/05/17 05:45:23;;;;;;;17.10;2.70;;;;;;;9.04;81.57;101606.56;106579;1256;62019;-70
2023/05/17 05:47:50;;;;;;;10.00;2.40;;;;;;;9.11;80.42;101609.95;106455;1256;73770;-71
2023/05/17 05:50:17;;;;;;;13.60;2.90;;;;;;;9.12;79.36;101616.02;106583;1257;71654;-70
2023/05/17 05:52:44;;;;;;;13.80;2.60;;;;;;;9.14;78.49;101614.45;106593;1256;71442;-71
2023/05/17 05:55:11;;;;;;;16.30;2.70;;;;;;;9.16;78.47;101614.03;108152;1257;61442;-70
2023/05/17 05:57:38;;;;;;;11.90;2.80;;;;;;;9.24;78.61;101619.33;107174;1257;59338;-71
2023/05/17 06:00:05;;;;;;;11.30;3.00;;;;;;;9.30;77.99;101624.05;107530;1257;73532;-69
2023/05/17 06:02:33;;;;;;;12.10;2.50;;;;;;;9.37;77.58;101622.98;106514;1257;70336;-72
2023/05/17 06:05:02;;;;;;;12.00;2.50;;;;;;;9.50;77.22;101626.92;107110;1256;71412;-71
2023/05/17 06:07:29;;;;;;;15.80;3.20;;;;;;;9.68;76.99;101621.73;107028;1257;61394;-70
2023/05/17 06:09:55;;;;;;;11.20;2.30;;;;;;;9.80;75.30;101633.23;107024;1256;61113;-70
2023/05/17 06:12:22;;;;;;;11.80;2.60;;;;;;;9.76;73.60;101634.01;107467;1257;73463;-72
2023/05/17 06:14:49;;;;;;;11.40;2.40;;;;;;;9.84;73.76;101629.88;107037;1257;69622;-73
2023/05/17 06:17:15;;;;;;;15.00;3.10;;;;;;;9.96;72.91;101630.12;107407;1256;73003;-69
2023/05/17 06:19:42;;;;;;;12.00;2.50;;;;;;;10.06;72.54;101636.25;106961;1257;61153;-69
2023/05/17 06:22:08;;;;;;;13.20;2.40;;;;;;;10.09;71.09;101640.06;107265;1256;60386;-69
2023/05/17 06:24:35;;;;;;;9.00;2.20;;;;;;;10.20;71.25;101642.31;107641;1256;59326;-69
2023/05/17 06:27:02;;;;;;;10.20;2.20;;;;;;;10.32;68.90;101640.61;106663;1260;70867;-71
2023/05/17 06:29:28;;;;;;;10.10;2.10;;;;;;;10.41;67.01;101646.14;107508;1257;71494;-67
2023/05/17 06:31:56;;;;;;;8.60;2.00;;;;;;;10.57;66.93;101642.69;107096;1256;61958;-70
2023/05/17 06:34:23;;;;;;;11.90;2.00;;;;;;;10.67;65.85;101653.48;107245;1256;60391;-71
2023/05/17 06:36:50;;;;;;;10.00;2.10;;;;;;;10.66;64.45;101650.77;106823;1256;73633;-71
2023/05/17 06:39:17;;;;;;;13.20;2.70;;;;;;;10.73;63.81;101651.15;107248;1256;70156;-71
2023/05/17 06:41:44;;;;;;;9.20;2.20;;;;;;;10.91;63.70;101653.20;107318;1261;72774;-70
2023/05/17 06:44:11;;;;;;;9.40;1.80;;;;;;;11.03;61.47;101651.37;107284;1257;62037;-69
2023/05/17 06:46:37;;;;;;;9.50;1.60;;;;;;;11.23;61.41;101658.02;107760;1256;61267;-69
2023/05/17 06:49:04;;;;;;;7.00;1.60;;;;;;;11.39;59.04;101658.06;107282;1256;74752;-72
2023/05/17 06:51:31;;;;;;;9.40;1.90;;;;;;;11.51;58.44;101653.20;107216;1256;69778;-71
2023/05/17 06:53:58;;;;;;;8.10;1.60;;;;;;;11.62;56.72;101657.89;107019;1257;73274;-71
2023/05/17 06:56:25;;;;;;;5.90;1.90;;;;;;;11.71;55.49;101662.85;107402;1257;61425;-72
2023/05/17 06:58:52;;;;;;;8.70;1.70;;;;;;;11.70;54.76;101669.09;107175;1256;60257;-71
2023/05/17 07:01:19;;;;;;;5.60;1.20;;;;;;;11.69;54.28;101671.91;107220;1256;74745;-71
2023/05/17 07:03:46;;;;;;;9.30;1.70;;;;;;;11.43;53.66;101689.63;106887;1265;71207;-71
2023/05/17 07:06:13;;;;;;;7.90;1.60;;;;;;;11.30;54.62;101679.21;107705;1257;71229;-70
2023/05/17 07:08:39;;;;;;;8.70;1.70;;;;;;;11.27;55.12;101678.26;106966;1257;61269;-72
2023/05/17 07:11:06;;;;;;;7.60;1.50;;;;;;;11.34;55.93;101680.38;106916;1256;61174;-69
2023/05/17 07:13:33;;;;;;;10.50;1.70;;;;;;;11.42;54.72;101688.63;107205;1256;74677;-70
2023/05/17 07:15:59;;;;;;;11.40;1.70;;;;;;;11.44;54.22;101690.73;107030;1259;69960;-72
2023/05/17 07:18:26;;;;;;;9.30;1.50;;;;;;;11.49;54.29;101692.92;107202;1256;71218;-70
2023/05/17 07:20:53;;;;;;;10.50;1.60;;;;;;;11.47;54.24;101693.96;107109;1256;61106;-71
2023/05/17 07:23:20;;;;;;;8.30;1.90;;;;;;;11.56;54.56;101701.41;107498;1256;61372;-70
2023/05/17 07:25:46;;;;;;;6.50;1.80;;;;;;;11.73;54.59;101700.58;107453;1256;73022;-70
2023/05/17 07:28:13;;;;;;;11.00;1.80;;;;;;;11.93;53.16;101704.52;107125;1256;69898;-71
2023/05/17 07:30:40;;;;;;;9.50;1.80;;;;;;;12.17;53.42;101708.13;106983;1257;71752;-71
2023/05/17 07:33:07;;;;;;;7.00;1.50;;;;;;;12.43;53.55;101716.02;107260;1262;61283;-75
2023/05/17 07:35:33;;;;;;;6.50;1.40;;;;;;;12.49;51.62;101714.44;107024;1256;61256;-70
2023/05/17 07:38:00;;;;;;;9.60;1.80;;;;;;;12.45;49.95;101723.38;106798;1260;74639;-71
2023/05/17 07:40:28;;;;;;;6.40;1.30;;;;;;;12.45;49.88;101720.76;107150;1257;70784;-71
2023/05/17 07:42:54;;;;;;;8.90;1.60;;;;;;;12.30;50.21;101721.60;107635;1256;71538;-70
2023/05/17 07:45:21;;;;;;;7.40;1.60;;;;;;;12.25;50.31;101722.70;107085;1257;61203;-70
2023/05/17 07:47:47;;;;;;;9.00;1.50;;;;;;;12.26;51.27;101731.09;107233;1257;61359;-70
2023/05/17 07:50:14;;;;;;;9.30;1.90;;;;;;;12.39;50.84;101731.88;107092;1256;74654;-71
2023/05/17 07:52:41;;;;;;;9.20;1.80;;;;;;;12.46;50.03;101733.79;106839;1257;70055;-71
2023/05/17 07:55:08;;;;;;;11.40;1.90;;;;;;;12.60;49.84;101741.11;106987;1256;61843;-71
2023/05/17 07:57:35;;;;;;;9.20;2.00;;;;;;;12.76;50.13;101740.51;107260;1257;61129;-70
2023/05/17 08:00:03;;;;;;;11.30;1.80;;;;;;;12.77;48.66;101748.41;107178;1257;61144;-70
2023/05/17 08:02:29;;;;;;;9.20;1.50;;;;;;;12.77;48.85;101748.41;107708;1256;73003;-70
2023/05/17 08:04:56;;;;;;;9.80;2.00;;;;;;;12.84;49.42;101752.79;106927;1257;70068;-70
2023/05/17 08:07:23;;;;;;;8.60;1.70;;;;;;;12.93;49.79;101756.96;107238;1257;71527;-70
2023/05/17 08:09:49;;;;;;;8.80;1.90;;;;;;;12.94;49.71;101765.11;106709;1257;61627;-70
2023/05/17 08:12:16;;;;;;;9.80;3.00;;;;;;;12.85;49.65;101762.11;107424;1256;61289;-69
2023/05/17 08:14:43;;;;;;;8.00;2.00;;;;;;;12.76;49.63;101774.08;107114;1258;75199;-71
2023/05/17 08:17:10;;;;;;;8.60;2.50;;;;;;;12.66;49.91;101773.38;106929;1259;71139;-72
2023/05/17 08:19:37;;;;;;;6.80;2.00;;;;;;;12.71;50.03;101770.39;107609;1259;73740;-71
2023/05/17 08:22:04;;;;;;;9.30;2.20;;;;;;;12.95;50.25;101769.40;106921;1257;61243;-71
2023/05/17 08:24:31;;;;;;;10.80;2.10;;;;;;;13.21;49.97;101768.93;106618;1257;343105;-70
2023/05/17 08:26:57;;;;;;;10.70;1.90;;;;;;;13.29;49.48;101769.35;106646;1257;61236;-73
2023/05/17 08:29:24;;;;;;;8.80;1.70;;;;;;;13.26;50.00;101766.81;106936;1257;69506;-72
2023/05/17 08:31:51;;;;;;;8.60;2.30;;;;;;;13.22;50.09;101768.14;107278;1256;71503;-71
2023/05/17 08:34:17;;;;;;;6.10;1.50;;;;;;;13.24;50.59;101768.11;106978;1256;61126;-71
2023/05/17 08:36:44;;;;;;;5.40;1.40;;;;;;;13.21;50.40;101770.20;106851;1256;61264;-71
2023/05/17 08:39:11;;;;;;;7.30;1.70;;;;;;;13.17;50.68;101780.42;107253;1257;75121;-72
2023/05/17 08:41:38;;;;;;;10.40;2.30;;;;;;;12.97;49.99;101785.50;107447;1257;69725;-72
2023/05/17 08:44:06;;;;;;;7.80;2.30;;;;;;;12.81;51.19;101787.25;106788;1257;72482;-72
2023/05/17 08:46:35;;;;;;;5.00;1.80;;;;;;;12.75;51.92;101789.11;107198;1257;61360;-70
2023/05/17 08:49:05;;;;;;;8.00;1.50;;;;;;;12.79;50.80;101790.13;107216;1256;61340;-71
2023/05/17 08:51:32;;;;;;;7.40;2.00;;;;;;;12.77;49.09;101785.48;107279;1257;72761;-72
2023/05/17 08:53:58;;;;;;;8.70;2.00;;;;;;;12.85;48.62;101781.85;106954;1257;69936;-75
2023/05/17 08:56:28;;;;;;;9.30;1.80;;;;;;;12.98;48.32;101782.91;107464;1256;71549;-70
2023/05/17 08:58:56;;;;;;;6.10;1.70;;;;;;;13.25;47.39;101786.30;107210;1256;61384;-72
2023/05/17 09:01:24;;;;;;;7.50;1.80;;;;;;;13.52;46.81;101790.05;106817;1257;61281;-71
2023/05/17 09:03:53;;;;;;;6.80;1.90;;;;;;;13.81;43.96;101785.56;107250;1257;73446;-70
2023/05/17 09:06:22;;;;;;;6.90;1.40;;;;;;;13.95;43.66;101774.86;107282;1256;69928;-69
2023/05/17 09:08:57;;;;;;;6.30;1.70;;;;;;;14.01;43.71;101787.45;106978;1257;71453;-71
2023/05/17 09:11:27;;;;;;;5.30;1.40;;;;;;;13.89;44.42;101783.61;107305;1257;61385;-71
2023/05/17 09:14:00;;;;;;;7.10;1.40;;;;;;;13.71;43.89;101789.48;107070;1256;61230;-72
2023/05/17 09:16:29;;;;;;;6.70;1.30;;;;;;;13.78;43.24;101784.60;107273;1256;74667;-71
2023/05/17 09:18:56;;;;;;;6.60;1.50;;;;;;;13.78;42.98;101790.46;106618;1262;70459;-71
2023/05/17 09:21:25;;;;;;;8.00;2.00;;;;;;;13.66;42.04;101786.45;106903;1257;70526;-72
2023/05/17 09:23:53;;;;;;;6.10;1.80;;;;;;;13.52;42.30;101786.99;107178;1258;61955;-71
2023/05/17 09:26:41;;;;;;;7.20;1.50;;;;;;;13.59;42.55;101784.19;107225;1258;59242;-71
2023/05/17 09:29:10;;;;;;;8.60;1.70;;;;;;;13.78;42.06;101789.86;106977;1257;74902;-72
2023/05/17 09:31:38;;;;;;;7.00;1.60;;;;;;;14.11;41.19;101781.65;107303;1256;70032;-70
2023/05/17 09:34:06;;;;;;;6.60;1.40;;;;;;;14.39;40.21;101780.48;107441;1257;71891;-71
2023/05/17 09:36:37;;;;;;;8.10;1.90;;;;;;;14.63;40.25;101775.79;106618;1256;61164;-70
2023/05/17 09:39:09;;;;;;;7.70;1.90;;;;;;;14.87;39.79;101772.14;107027;1257;61122;-71
2023/05/17 09:41:45;;;;;;;8.50;1.90;;;;;;;14.92;39.41;101779.42;107252;1256;73623;-72
2023/05/17 09:44:13;;;;;;;6.90;1.60;;;;;;;14.90;39.21;101778.10;106966;1259;70121;-72
2023/05/17 09:46:46;;;;;;;8.40;1.70;;;;;;;14.91;39.19;101778.63;107184;1256;71621;-70
2023/05/17 09:49:13;;;;;;;5.90;1.60;;;;;;;15.02;39.18;101779.89;107370;1257;59079;-71
2023/05/17 09:51:43;;;;;;;6.80;1.70;;;;;;;15.10;39.37;101787.31;107275;1257;62608;-70
2023/05/17 09:54:10;;;;;;;10.50;2.30;;;;;;;15.14;39.11;101787.67;107084;1261;73436;-71
2023/05/17 09:56:38;;;;;;;8.10;1.70;;;;;;;14.89;38.51;101790.46;107207;1257;70699;-71
2023/05/17 09:59:14;;;;;;;6.80;1.50;;;;;;;14.65;38.16;101786.27;107515;1257;71306;-72
2023/05/17 10:01:44;;;;;;;8.00;1.70;;;;;;;14.91;39.26;101778.09;107009;1257;62099;-71
2023/05/17 10:04:12;;;;;;;9.00;2.30;;;;;;;15.17;38.56;101776.08;107273;1256;61686;-71
2023/05/17 10:06:41;;;;;;;9.30;1.80;;;;;;;15.16;37.95;101780.92;107307;1257;73283;-71
2023/05/17 10:09:14;;;;;;;7.20;1.80;;;;;;;15.28;38.20;101776.03;107517;1257;70534;-71
2023/05/17 10:11:44;;;;;;;4.00;1.40;;;;;;;15.52;38.46;101774.42;107066;1257;71877;-70
2023/05/17 10:14:25;;;;;;;7.30;1.30;;;;;;;15.51;38.26;101767.77;107116;1257;61230;-70
2023/05/17 10:16:53;;;;;;;7.30;1.90;;;;;;;15.42;38.02;101773.52;107284;1258;61135;-70
2023/05/17 10:19:20;;;;;;;7.20;1.60;;;;;;;15.46;38.18;101776.13;106589;1257;74662;-72
2023/05/17 10:21:49;;;;;;;6.20;1.50;;;;;;;15.35;38.13;101785.46;107181;1256;71235;-72
2023/05/17 10:24:18;;;;;;;6.60;1.60;;;;;;;15.07;38.99;101788.23;107281;1256;71728;-71
2023/05/17 10:26:45;;;;;;;5.30;1.40;;;;;;;14.93;39.12;101796.26;106850;1257;61557;-72
2023/05/17 10:29:13;;;;;;;4.90;1.10;;;;;;;14.90;39.11;101796.77;107022;1257;61186;-70
2023/05/17 10:31:42;;;;;;;4.60;1.30;;;;;;;14.90;38.17;101794.48;107407;1257;72698;-71
2023/05/17 10:34:10;;;;;;;6.30;1.30;;;;;;;15.00;38.10;101783.02;107151;1257;70418;-71
2023/05/17 10:36:37;;;;;;;7.20;1.50;;;;;;;14.86;38.02;101803.98;107100;1256;71140;-71
2023/05/17 10:39:07;;;;;;;6.70;1.70;;;;;;;14.64;37.58;101799.32;107141;1257;61134;-71
2023/05/17 10:41:37;;;;;;;7.20;1.90;;;;;;;14.71;38.56;101791.85;107399;1256;59205;-72
2023/05/17 10:44:07;;;;;;;8.20;1.90;;;;;;;14.80;38.47;101789.21;107142;1256;74512;-71
2023/05/17 10:46:35;;;;;;;5.10;1.30;;;;;;;14.78;37.93;101783.52;107022;1257;71517;-71
2023/05/17 10:49:02;;;;;;;5.40;1.50;;;;;;;14.77;38.40;101783.70;107004;1262;72084;-70
2023/05/17 10:51:32;;;;;;;8.10;1.70;;;;;;;14.76;39.44;101797.88;107031;1256;61193;-71
2023/05/17 10:54:01;;;;;;;6.40;1.40;;;;;;;14.91;39.70;101787.95;107407;1257;59137;-71
2023/05/17 10:56:32;;;;;;;9.70;1.70;;;;;;;15.13;39.76;101788.80;107346;1258;73684;-70
2023/05/17 10:59:20;;;;;;;5.50;1.60;;;;;;;15.11;40.22;101789.79;107387;1257;69967;-70
2023/05/17 11:01:49;;;;;;;6.00;1.70;;;;;;;15.07;39.99;101790.71;107184;1257;71437;-71
2023/05/17 11:04:24;;;;;;;7.70;1.70;;;;;;;15.05;40.01;101788.23;107198;1257;62252;-71
2023/05/17 11:06:53;;;;;;;6.50;1.90;;;;;;;15.18;40.01;101782.15;107045;1260;61199;-72
2023/05/17 11:09:23;;;;;;;6.70;1.70;;;;;;;15.20;39.84;101789.80;107447;1257;73668;-71
2023/05/17 11:12:09;;;;;;;4.40;1.30;;;;;;;15.14;39.97;101787.50;106836;1256;69497;-72
2023/05/17 11:15:06;;;;;;;6.10;1.60;;;;;;;15.14;39.36;101787.34;107113;1257;71453;-70
2023/05/17 11:17:35;;;;;;;6.40;1.40;;;;;;;15.13;38.49;101789.67;107307;1260;61249;-71
2023/05/17 11:20:13;;;;;;;6.20;1.50;;;;;;;15.01;37.84;101792.16;107164;1258;59858;-71
2023/05/17 11:23:15;;;;;;;6.40;1.80;;;;;;;14.97;38.43;101783.38;107038;1258;73145;-70